Time;durP1;ratioP1;P1;durP2;ratioP2;P2;SDS_P1;SDS_P2;PMS_P1;PMS_P2;Temp;Humidity;BMP_temperature;BMP_pressure;BME280_temperature;BME280_humidity;BME280_pressure;Samples;Min_cycle;Max_cycle;Signal;HPM_P1;HPM_P2
2022/07/23 00:00:20;;;;;;;8.30;3.80;;;;;;;21.13;51.32;99147.61;1693015;84;21113;-79
2022/07/23 00:02:49;;;;;;;13.58;3.92;;;;;;;21.11;52.41;99147.32;1691412;84;21023;-79
2022/07/23 00:05:15;;;;;;;11.05;3.83;;;;;;;21.06;52.59;99148.48;1685590;84;21042;-78
2022/07/23 00:07:42;;;;;;;12.82;3.83;;;;;;;21.03;52.87;99147.87;1688589;84;21018;-79
2022/07/23 00:10:09;;;;;;;9.70;3.83;;;;;;;20.96;51.88;99148.73;1660572;84;21514;-78
2022/07/23 00:12:37;;;;;;;8.78;3.80;;;;;;;20.91;53.66;99145.57;1692835;84;21034;-80
2022/07/23 00:15:07;;;;;;;7.85;3.67;;;;;;;20.90;53.32;99149.63;1689212;83;21534;-78
2022/07/23 00:17:34;;;;;;;13.98;4.72;;;;;;;20.87;52.88;99149.37;1693950;84;21511;-79
2022/07/23 00:20:01;;;;;;;10.55;3.98;;;;;;;20.87;54.07;99153.33;1667041;86;21051;-78
2022/07/23 00:22:29;;;;;;;12.28;4.35;;;;;;;20.85;53.48;99149.47;1693416;84;21027;-77
2022/07/23 00:24:56;;;;;;;12.37;3.95;;;;;;;20.84;53.54;99147.75;1690496;84;21036;-77
2022/07/23 00:27:23;;;;;;;11.85;4.72;;;;;;;20.83;53.91;99147.40;1693274;83;21067;-80
2022/07/23 00:29:49;;;;;;;8.33;4.37;;;;;;;20.83;53.93;99155.33;1689027;83;21071;-78
2022/07/23 00:32:16;;;;;;;9.00;4.35;;;;;;;20.82;54.03;99151.45;1662340;84;21066;-79
2022/07/23 00:34:42;;;;;;;7.75;3.70;;;;;;;20.81;54.39;99155.91;1662365;85;21023;-79
2022/07/23 00:37:09;;;;;;;8.30;4.10;;;;;;;20.79;54.97;99149.88;1685724;84;21025;-80
2022/07/23 00:39:36;;;;;;;14.35;4.90;;;;;;;20.75;54.45;99147.52;1694608;83;21027;-79
2022/07/23 00:42:03;;;;;;;8.78;4.47;;;;;;;20.73;54.71;99145.45;1711298;83;21034;-80
2022/07/23 00:44:30;;;;;;;11.05;4.65;;;;;;;20.70;54.16;99146.99;1675691;83;21089;-78
2022/07/23 00:46:59;;;;;;;13.83;4.60;;;;;;;20.66;54.74;99145.02;1688650;85;21467;-78
2022/07/23 00:49:29;;;;;;;13.80;4.40;;;;;;;20.62;53.85;99149.66;1677068;83;21579;-79
2022/07/23 00:51:57;;;;;;;10.20;4.15;;;;;;;20.51;53.30;99152.59;1689723;85;20998;-78
2022/07/23 00:54:27;;;;;;;10.65;4.45;;;;;;;20.42;55.49;99146.96;1677489;83;21070;-79
2022/07/23 00:56:54;;;;;;;11.00;4.60;;;;;;;20.39;56.89;99147.63;1688446;83;21054;-80
2022/07/23 00:59:21;;;;;;;11.85;4.60;;;;;;;20.34;55.91;99145.30;1679076;84;21018;-81
2022/07/23 01:01:48;;;;;;;10.25;4.40;;;;;;;20.31;56.19;99140.68;1718218;83;21029;-80
2022/07/23 01:04:16;;;;;;;9.68;4.33;;;;;;;20.26;56.44;99139.19;1681292;83;21104;-78
2022/07/23 01:06:45;;;;;;;10.13;4.47;;;;;;;20.24;57.30;99133.16;1687155;83;21343;-79
2022/07/23 01:09:12;;;;;;;10.93;4.50;;;;;;;20.22;56.19;99134.21;1692032;83;21046;-78
2022/07/23 01:11:40;;;;;;;13.62;5.15;;;;;;;20.16;57.14;99136.77;1706726;83;22086;-78
2022/07/23 01:14:18;;;;;;;10.30;5.20;;;;;;;20.11;55.20;99132.72;1704525;83;21613;-79
2022/07/23 01:16:48;;;;;;;11.05;5.53;;;;;;;20.01;53.37;99134.61;1717890;82;21025;-79
2022/07/23 01:19:17;;;;;;;13.68;4.90;;;;;;;19.92;54.04;99132.58;1686085;83;22174;-78
2022/07/23 01:21:50;;;;;;;9.70;5.33;;;;;;;19.87;54.24;99135.96;1680214;83;21553;-78
2022/07/23 01:24:22;;;;;;;14.55;4.90;;;;;;;19.81;54.60;99135.03;1657415;85;21049;-78
2022/07/23 01:26:49;;;;;;;13.78;4.90;;;;;;;19.75;55.30;99134.09;1681699;83;21042;-78
2022/07/23 01:29:18;;;;;;;12.58;5.33;;;;;;;19.71;55.41;99136.52;1688837;83;20998;-78
2022/07/23 01:31:46;;;;;;;12.60;5.03;;;;;;;19.67;54.81;99134.06;1685353;83;21097;-79
2022/07/23 01:34:12;;;;;;;11.50;5.22;;;;;;;19.63;55.77;99135.67;1689285;85;21042;-78
2022/07/23 01:36:40;;;;;;;16.67;4.83;;;;;;;19.56;54.23;99134.38;1687268;83;20995;-79
2022/07/23 01:39:07;;;;;;;9.80;4.42;;;;;;;19.51;54.46;99135.95;1684146;83;21541;-78
2022/07/23 01:41:34;;;;;;;13.83;4.97;;;;;;;19.45;55.36;99141.13;1686186;85;21050;-79
2022/07/23 01:44:02;;;;;;;12.25;5.50;;;;;;;19.44;55.79;99134.66;1675396;85;21074;-79
2022/07/23 01:46:29;;;;;;;13.20;4.83;;;;;;;19.42;55.17;99140.01;1708906;83;21490;-78
2022/07/23 01:48:56;;;;;;;10.50;4.67;;;;;;;19.41;55.98;99137.45;1710536;84;21040;-79
2022/07/23 01:51:33;;;;;;;14.00;4.78;;;;;;;19.40;55.58;99141.89;1685477;83;21024;-79
2022/07/23 01:54:04;;;;;;;12.93;5.03;;;;;;;19.40;56.89;99145.84;1703163;82;21031;-77
2022/07/23 01:56:31;;;;;;;13.05;5.20;;;;;;;19.35;56.56;99145.74;1711327;83;21077;-79
2022/07/23 01:58:57;;;;;;;11.55;5.28;;;;;;;19.32;55.61;99143.27;1701704;82;21056;-78
2022/07/23 02:01:24;;;;;;;9.63;5.03;;;;;;;19.30;55.62;99143.39;1708603;82;21062;-78
2022/07/23 02:03:51;;;;;;;12.68;4.72;;;;;;;19.28;55.61;99143.48;1703652;83;21018;-78
2022/07/23 02:06:17;;;;;;;11.80;5.05;;;;;;;19.27;56.59;99141.77;1710335;82;21047;-79
2022/07/23 02:08:44;;;;;;;18.85;5.40;;;;;;;19.26;56.23;99130.02;1702791;84;21040;-78
2022/07/23 02:11:10;;;;;;;12.20;5.33;;;;;;;19.25;56.75;99140.17;1712372;82;21063;-79
2022/07/23 02:13:37;;;;;;;12.23;5.00;;;;;;;19.26;58.34;99132.18;1704060;83;21052;-79
2022/07/23 02:16:04;;;;;;;17.52;5.00;;;;;;;19.26;57.88;99125.59;1712498;83;21032;-78
2022/07/23 02:18:31;;;;;;;15.48;4.87;;;;;;;19.21;57.51;99128.97;1704259;83;21055;-78
2022/07/23 02:20:57;;;;;;;11.65;4.97;;;;;;;19.13;57.46;99127.27;1712357;83;21060;-78
2022/07/23 02:23:24;;;;;;;11.68;4.72;;;;;;;19.10;58.45;99127.91;1702867;82;20994;-79
2022/07/23 02:25:50;;;;;;;12.30;5.00;;;;;;;19.06;60.21;99128.59;1683270;85;21499;-79
2022/07/23 02:28:17;;;;;;;14.85;4.90;;;;;;;19.05;57.92;99136.94;1664445;85;21070;-79
2022/07/23 02:30:44;;;;;;;10.03;5.33;;;;;;;19.03;58.27;99132.70;1669989;85;21060;-79
2022/07/23 02:33:11;;;;;;;13.03;5.42;;;;;;;19.00;59.17;99140.78;1719010;82;21069;-79
2022/07/23 02:35:39;;;;;;;11.45;4.80;;;;;;;18.96;56.90;99143.22;1708258;82;21002;-78
2022/07/23 02:38:06;;;;;;;12.70;5.10;;;;;;;18.93;56.68;99145.57;1711636;82;21077;-80
2022/07/23 02:40:33;;;;;;;13.60;5.30;;;;;;;18.86;56.68;99137.19;1705578;82;21508;-79
2022/07/23 02:42:59;;;;;;;9.95;4.67;;;;;;;18.85;58.20;99139.43;1716345;83;21030;-78
2022/07/23 02:45:26;;;;;;;10.08;4.53;;;;;;;18.85;57.66;99140.74;1682184;84;20998;-79
2022/07/23 02:47:53;;;;;;;9.55;4.75;;;;;;;18.85;56.81;99146.48;1715982;83;21486;-79
2022/07/23 02:50:21;;;;;;;18.67;5.33;;;;;;;18.83;58.78;99149.20;1709779;83;21118;-79
2022/07/23 02:52:47;;;;;;;17.90;5.62;;;;;;;18.85;57.46;99157.87;1715615;82;21111;-79
2022/07/23 02:55:14;;;;;;;10.53;4.50;;;;;;;18.76;58.26;99162.34;1712599;83;21061;-79
2022/07/23 02:57:41;;;;;;;13.55;4.65;;;;;;;18.69;57.74;99167.09;1715927;82;21030;-81
2022/07/23 03:00:09;;;;;;;10.13;5.45;;;;;;;18.65;58.86;99174.78;1716517;82;21014;-79
2022/07/23 03:02:36;;;;;;;13.32;4.72;;;;;;;18.66;59.47;99171.23;1716794;82;21002;-78
2022/07/23 03:05:04;;;;;;;13.58;5.10;;;;;;;18.65;58.68;99170.84;1715104;83;21029;-78
2022/07/23 03:07:31;;;;;;;9.35;4.90;;;;;;;18.64;59.27;99173.55;1707000;83;21041;-79
2022/07/23 03:09:58;;;;;;;15.05;5.15;;;;;;;18.67;59.29;99167.64;1686266;84;21026;-79
2022/07/23 03:12:24;;;;;;;15.08;5.22;;;;;;;18.70;59.53;99167.93;1713126;83;21037;-79
2022/07/23 03:14:51;;;;;;;9.23;4.87;;;;;;;18.74;59.95;99169.92;1715191;83;21010;-79
2022/07/23 03:17:18;;;;;;;13.62;5.40;;;;;;;18.77;59.90;99177.19;1681560;84;21089;-78
2022/07/23 03:19:45;;;;;;;14.07;5.28;;;;;;;18.78;59.11;99176.70;1716925;83;21018;-79
2022/07/23 03:22:11;;;;;;;14.40;5.05;;;;;;;18.71;59.76;99185.92;1708318;82;21549;-77
2022/07/23 03:24:56;;;;;;;14.33;5.78;;;;;;;18.71;59.76;99178.02;1717121;83;21046;-78
2022/07/23 03:27:30;;;;;;;10.50;5.55;;;;;;;18.70;62.21;99178.46;1710692;83;21002;-79
2022/07/23 03:29:59;;;;;;;15.93;5.40;;;;;;;18.68;62.11;99166.72;1694574;82;21029;-79
2022/07/23 03:32:26;;;;;;;11.45;5.17;;;;;;;18.65;61.87;99173.94;1713777;82;20999;-78
2022/07/23 03:34:53;;;;;;;11.70;5.35;;;;;;;18.62;60.58;99178.05;1715634;82;21344;-80
2022/07/23 03:37:20;;;;;;;16.57;5.67;;;;;;;18.62;61.35;99181.56;1708350;83;21509;-79
2022/07/23 03:39:47;;;;;;;10.15;5.53;;;;;;;18.64;62.10;99174.86;1694113;83;21033;-80
2022/07/23 03:42:14;;;;;;;14.00;5.65;;;;;;;18.60;60.04;99172.90;1709214;82;21069;-80
2022/07/23 03:44:40;;;;;;;13.38;6.33;;;;;;;18.58;60.82;99173.90;1718028;83;21066;-81
2022/07/23 03:47:07;;;;;;;15.20;5.65;;;;;;;18.57;61.07;99170.42;1682447;83;21025;-80
2022/07/23 03:49:35;;;;;;;18.73;5.75;;;;;;;18.54;59.15;99174.53;1687733;83;21530;-79
2022/07/23 03:52:01;;;;;;;13.62;6.15;;;;;;;18.51;60.35;99179.99;1659682;85;21037;-79
2022/07/23 03:54:28;;;;;;;18.52;5.65;;;;;;;18.48;59.97;99180.15;1662109;85;21021;-79
2022/07/23 03:56:54;;;;;;;19.20;6.35;;;;;;;18.44;60.31;99182.13;1689099;84;21102;-79
2022/07/23 03:59:21;;;;;;;16.93;6.30;;;;;;;18.44;60.42;99183.45;1668121;84;21045;-80
2022/07/23 04:01:48;;;;;;;14.23;6.17;;;;;;;18.45;60.96;99194.34;1663587;86;21617;-80
2022/07/23 04:04:15;;;;;;;17.67;6.22;;;;;;;18.49;61.21;99195.02;1686074;83;20994;-78
2022/07/23 04:06:42;;;;;;;15.88;6.35;;;;;;;18.50;61.24;99195.39;1689106;85;21486;-81
2022/07/23 04:09:08;;;;;;;12.80;5.75;;;;;;;18.51;60.09;99198.42;1677523;83;21034;-81
2022/07/23 04:11:35;;;;;;;16.60;6.05;;;;;;;18.54;61.00;99198.23;1686944;83;21103;-80
2022/07/23 04:14:01;;;;;;;16.50;5.67;;;;;;;18.60;60.77;99200.98;1681156;83;21037;-82
2022/07/23 04:16:28;;;;;;;14.20;5.75;;;;;;;18.70;60.19;99207.43;1688938;85;21038;-80
2022/07/23 04:18:55;;;;;;;14.13;6.15;;;;;;;18.77;60.27;99207.47;1684929;83;21085;-80
2022/07/23 04:21:22;;;;;;;15.32;6.25;;;;;;;18.86;60.72;99199.09;1682138;85;20993;-81
2022/07/23 04:23:48;;;;;;;15.88;6.40;;;;;;;18.93;60.45;99210.59;1684416;83;21129;-79
2022/07/23 04:26:16;;;;;;;18.40;6.80;;;;;;;18.99;60.18;99207.59;1686184;85;21025;-79
2022/07/23 04:28:42;;;;;;;14.53;6.45;;;;;;;19.08;59.93;99207.07;1686363;85;21253;-79
2022/07/23 04:31:09;;;;;;;17.27;5.97;;;;;;;19.09;59.66;99214.02;1689688;83;21014;-79
2022/07/23 04:33:37;;;;;;;15.78;6.03;;;;;;;19.10;59.36;99213.55;1687499;84;21098;-79
2022/07/23 04:36:06;;;;;;;16.82;6.20;;;;;;;19.13;59.31;99214.70;1687595;83;21077;-79
2022/07/23 04:38:33;;;;;;;19.17;6.58;;;;;;;19.22;60.41;99212.38;1687815;84;21022;-79
2022/07/23 04:41:01;;;;;;;16.37;6.62;;;;;;;19.34;60.16;99217.84;1708395;82;21077;-80
2022/07/23 04:43:28;;;;;;;16.82;7.00;;;;;;;19.42;60.56;99213.83;1723913;82;21046;-78
2022/07/23 04:45:55;;;;;;;15.75;6.60;;;;;;;19.47;59.62;99212.22;1711739;82;21494;-79
2022/07/23 04:48:22;;;;;;;18.77;7.53;;;;;;;19.53;60.70;99207.90;1716785;83;21065;-79
2022/07/23 04:50:50;;;;;;;15.00;7.12;;;;;;;19.58;58.91;99205.84;1708646;82;21074;-78
2022/07/23 04:53:19;;;;;;;19.10;7.00;;;;;;;19.62;59.45;99203.40;1716328;82;21025;-80
2022/07/23 04:55:47;;;;;;;14.15;7.20;;;;;;;19.68;60.49;99206.98;1707863;82;21144;-80
2022/07/23 04:58:13;;;;;;;19.55;7.10;;;;;;;19.71;58.75;99206.41;1716612;82;21049;-78
2022/07/23 05:00:40;;;;;;;19.35;7.00;;;;;;;19.76;59.63;99209.19;1712002;82;21593;-79
2022/07/23 05:03:07;;;;;;;20.25;7.62;;;;;;;19.83;58.94;99209.17;1711911;82;21038;-79
2022/07/23 05:05:35;;;;;;;22.42;7.10;;;;;;;19.88;59.05;99213.34;1725249;82;21690;-79
2022/07/23 05:08:04;;;;;;;17.95;6.80;;;;;;;19.97;58.97;99208.80;1709398;83;21017;-79
2022/07/23 05:10:32;;;;;;;16.67;7.35;;;;;;;20.02;58.90;99218.13;1716443;82;20995;-78
2022/07/23 05:12:59;;;;;;;20.72;7.37;;;;;;;20.11;57.98;99215.86;1712475;82;21068;-79
2022/07/23 05:15:26;;;;;;;13.78;6.60;;;;;;;20.17;58.35;99214.14;1721758;82;21009;-79
2022/07/23 05:17:53;;;;;;;17.98;7.35;;;;;;;20.25;57.88;99214.51;1714937;83;21005;-80
2022/07/23 05:20:20;;;;;;;18.95;7.87;;;;;;;20.32;57.97;99214.51;1716827;83;21085;-79
2022/07/23 05:22:47;;;;;;;12.15;6.97;;;;;;;20.42;57.63;99206.38;1708489;83;21517;-79
2022/07/23 05:25:13;;;;;;;11.55;6.10;;;;;;;20.46;57.75;99202.59;1689985;83;21051;-80
2022/07/23 05:27:40;;;;;;;17.35;6.80;;;;;;;20.49;57.61;99207.30;1714579;83;21066;-79
2022/07/23 05:30:08;;;;;;;15.35;6.80;;;;;;;20.59;57.69;99203.14;1712352;83;21057;-80
2022/07/23 05:32:36;;;;;;;14.73;5.92;;;;;;;20.65;57.90;99204.06;1708431;82;21315;-79
2022/07/23 05:35:08;;;;;;;18.80;6.25;;;;;;;20.73;56.72;99202.25;1710589;83;21025;-80
2022/07/23 05:37:36;;;;;;;17.45;6.80;;;;;;;20.79;56.83;99215.92;1723561;82;21073;-79
2022/07/23 05:40:07;;;;;;;14.68;6.53;;;;;;;20.92;56.36;99217.76;1687148;83;21021;-79
2022/07/23 05:42:35;;;;;;;16.60;5.95;;;;;;;21.00;56.21;99211.48;1723879;82;21572;-79
2022/07/23 05:45:04;;;;;;;18.90;6.47;;;;;;;21.06;56.54;99212.40;1719035;82;20982;-80
2022/07/23 05:47:47;;;;;;;12.28;5.45;;;;;;;21.17;56.07;99207.70;1718154;82;21037;-80
2022/07/23 05:50:16;;;;;;;17.02;5.92;;;;;;;21.28;55.84;99209.64;1712100;82;21046;-79
2022/07/23 05:52:47;;;;;;;23.83;6.22;;;;;;;21.40;55.63;99214.94;1716950;82;21557;-81
2022/07/23 05:55:33;;;;;;;11.95;5.55;;;;;;;21.51;55.30;99217.38;1714328;83;21105;-81
2022/07/23 05:58:00;;;;;;;16.40;5.95;;;;;;;21.60;54.93;99212.77;1717389;83;21026;-79
2022/07/23 06:00:28;;;;;;;15.25;5.80;;;;;;;21.69;54.69;99208.66;1712490;83;21081;-79
2022/07/23 06:02:55;;;;;;;19.95;6.12;;;;;;;21.82;54.55;99217.41;1718651;82;20994;-79
2022/07/23 06:05:23;;;;;;;14.18;5.85;;;;;;;21.93;54.32;99207.42;1680579;83;21105;-79
2022/07/23 06:07:50;;;;;;;11.73;5.65;;;;;;;22.04;54.05;99213.65;1712015;83;21939;-81
2022/07/23 06:10:17;;;;;;;9.15;5.42;;;;;;;22.18;53.71;99211.34;1694316;83;20987;-80
2022/07/23 06:12:44;;;;;;;15.75;6.08;;;;;;;22.32;53.53;99205.55;1712140;82;21074;-80
2022/07/23 06:15:11;;;;;;;12.23;5.22;;;;;;;22.43;53.13;99200.34;1714133;83;21013;-79
2022/07/23 06:17:39;;;;;;;10.82;5.47;;;;;;;22.58;52.92;99204.98;1715113;82;21552;-79
2022/07/23 06:20:09;;;;;;;17.30;5.28;;;;;;;22.70;52.58;99205.44;1715953;82;21038;-79
2022/07/23 06:22:37;;;;;;;10.60;5.42;;;;;;;22.82;52.21;99207.66;1692271;83;21057;-79
2022/07/23 06:25:06;;;;;;;11.20;5.12;;;;;;;22.94;50.44;99209.85;1692492;83;21018;-79
2022/07/23 06:27:33;;;;;;;10.28;5.40;;;;;;;23.03;51.20;99202.58;1676971;83;20978;-79
2022/07/23 06:30:00;;;;;;;15.15;5.17;;;;;;;23.16;50.97;99200.70;1685694;84;21557;-80
2022/07/23 06:32:26;;;;;;;18.98;5.53;;;;;;;23.27;50.30;99201.69;1672958;85;20990;-80
2022/07/23 06:34:53;;;;;;;14.23;5.15;;;;;;;23.36;50.16;99199.19;1708610;83;22139;-79
2022/07/23 06:37:21;;;;;;;14.00;5.58;;;;;;;23.48;49.96;99193.91;1714195;82;21009;-79
2022/07/23 06:39:47;;;;;;;20.37;6.22;;;;;;;23.55;49.43;99186.66;1693826;83;21080;-80
2022/07/23 06:42:14;;;;;;;13.93;5.28;;;;;;;23.65;49.13;99180.66;1704678;82;21045;-81
2022/07/23 06:44:44;;;;;;;9.88;4.85;;;;;;;23.71;48.77;99182.82;1719057;82;21034;-80
2022/07/23 06:47:11;;;;;;;9.90;5.37;;;;;;;23.81;48.69;99176.72;1682174;83;21026;-81
2022/07/23 06:49:38;;;;;;;17.20;5.72;;;;;;;23.93;47.97;99178.86;1690075;83;21057;-80
2022/07/23 06:52:04;;;;;;;16.73;4.97;;;;;;;24.01;47.91;99175.14;1679499;83;21034;-81
2022/07/23 06:54:33;;;;;;;13.83;5.45;;;;;;;24.13;47.25;99175.11;1657488;85;21014;-81
2022/07/23 06:56:59;;;;;;;11.65;5.47;;;;;;;24.25;46.86;99171.95;1679383;85;21596;-79
2022/07/23 06:59:27;;;;;;;12.60;5.40;;;;;;;24.33;46.46;99174.38;1666000;84;21548;-80
2022/07/23 07:01:54;;;;;;;11.12;5.33;;;;;;;24.42;45.65;99169.62;1661064;84;21099;-80
2022/07/23 07:04:21;;;;;;;13.45;5.40;;;;;;;24.54;46.10;99176.27;1686107;83;20975;-80
2022/07/23 07:06:47;;;;;;;10.50;4.87;;;;;;;24.65;45.65;99175.38;1661159;85;21141;-79
2022/07/23 07:09:14;;;;;;;8.65;4.30;;;;;;;24.76;45.35;99172.69;1653769;85;21006;-79
2022/07/23 07:11:40;;;;;;;16.32;6.25;;;;;;;24.88;45.32;99171.66;1665603;85;21578;-80
2022/07/23 07:14:07;;;;;;;11.68;4.97;;;;;;;25.04;45.01;99169.06;1716884;83;20996;-80
2022/07/23 07:16:34;;;;;;;15.98;5.30;;;;;;;25.15;44.82;99165.86;1718838;82;21042;-81
2022/07/23 07:19:00;;;;;;;12.20;4.90;;;;;;;25.30;44.50;99164.22;1685601;83;21073;-80
2022/07/23 07:21:27;;;;;;;13.83;4.97;;;;;;;25.45;44.44;99169.58;1689281;85;21090;-81
2022/07/23 07:23:53;;;;;;;12.45;4.85;;;;;;;25.59;44.28;99163.90;1686172;83;21518;-80
2022/07/23 07:26:20;;;;;;;16.27;5.37;;;;;;;25.73;43.79;99167.19;1685692;83;21031;-79
2022/07/23 07:28:46;;;;;;;13.72;5.17;;;;;;;25.84;43.37;99162.25;1687959;83;21088;-79
2022/07/23 07:31:13;;;;;;;11.35;4.28;;;;;;;25.97;42.79;99169.56;1689881;85;21014;-80
2022/07/23 07:33:40;;;;;;;15.68;5.67;;;;;;;26.09;42.60;99163.64;1688249;83;21498;-81
2022/07/23 07:36:07;;;;;;;11.50;5.35;;;;;;;26.21;42.46;99152.38;1677877;83;21041;-81
2022/07/23 07:38:34;;;;;;;11.38;5.17;;;;;;;26.34;41.95;99159.14;1686006;83;21069;-79
2022/07/23 07:41:01;;;;;;;19.73;5.10;;;;;;;26.44;42.05;99156.96;1689514;83;21037;-79
2022/07/23 07:43:28;;;;;;;10.48;4.58;;;;;;;26.59;41.09;99158.28;1688226;83;21617;-80
2022/07/23 07:45:54;;;;;;;10.00;4.47;;;;;;;26.68;41.03;99155.25;1715883;83;20998;-80
2022/07/23 07:48:21;;;;;;;15.90;4.40;;;;;;;26.82;40.83;99158.00;1689525;85;21030;-81
2022/07/23 07:50:48;;;;;;;9.73;4.62;;;;;;;26.94;40.49;99152.89;1687782;83;21054;-79
2022/07/23 07:53:14;;;;;;;9.35;4.55;;;;;;;27.07;40.01;99160.08;1689510;85;21082;-80
2022/07/23 07:55:40;;;;;;;10.98;4.80;;;;;;;27.19;38.54;99155.44;1672748;83;21002;-80
2022/07/23 07:58:07;;;;;;;12.43;4.70;;;;;;;27.33;37.48;99152.84;1688794;83;21026;-80
2022/07/23 08:00:34;;;;;;;10.63;4.33;;;;;;;27.44;38.38;99152.68;1675394;83;21105;-80
2022/07/23 08:03:00;;;;;;;14.13;4.20;;;;;;;27.52;38.35;99155.45;1687166;83;21042;-82
2022/07/23 08:05:29;;;;;;;8.55;4.35;;;;;;;27.64;38.44;99136.59;1680678;83;21526;-82
2022/07/23 08:07:58;;;;;;;9.43;4.33;;;;;;;27.78;37.85;99144.12;1689445;85;21033;-80
2022/07/23 08:10:26;;;;;;;12.20;4.83;;;;;;;27.90;37.24;99140.80;1683411;85;21022;-80
2022/07/23 08:12:56;;;;;;;14.28;4.60;;;;;;;27.97;36.61;99141.86;1685642;83;21018;-79
2022/07/23 08:15:25;;;;;;;8.50;4.58;;;;;;;28.11;36.23;99148.54;1684744;85;20990;-80
2022/07/23 08:17:52;;;;;;;15.83;4.92;;;;;;;28.23;35.47;99138.48;1682640;84;21558;-80
2022/07/23 08:20:21;;;;;;;9.10;4.75;;;;;;;28.31;35.12;99138.09;1669635;84;21006;-80
2022/07/23 08:22:55;;;;;;;13.32;5.37;;;;;;;28.39;35.46;99136.48;1685599;85;21036;-80
2022/07/23 08:25:27;;;;;;;8.45;4.62;;;;;;;28.49;35.38;99135.91;1689175;85;21525;-80
2022/07/23 08:27:55;;;;;;;11.08;4.83;;;;;;;28.56;35.16;99135.69;1681537;83;21053;-79
2022/07/23 08:30:22;;;;;;;14.98;4.97;;;;;;;28.72;35.59;99131.81;1686451;83;21026;-80
2022/07/23 08:32:56;;;;;;;11.22;4.30;;;;;;;28.87;35.40;99121.89;1683852;83;22048;-80
2022/07/23 08:35:31;;;;;;;17.07;5.10;;;;;;;28.96;35.32;99124.48;1686776;85;20983;-80
2022/07/23 08:38:00;;;;;;;11.50;4.37;;;;;;;29.17;34.64;99120.66;1680088;83;21046;-81
2022/07/23 08:40:30;;;;;;;7.85;4.28;;;;;;;29.38;33.82;99121.61;1688104;83;21056;-79
2022/07/23 08:42:56;;;;;;;13.80;4.35;;;;;;;29.53;33.05;99124.05;1673680;83;21077;-79
2022/07/23 08:45:26;;;;;;;14.18;4.00;;;;;;;29.65;33.21;99121.94;1680024;85;21024;-80
2022/07/23 08:48:00;;;;;;;11.57;4.72;;;;;;;29.77;32.38;99121.69;1707578;82;21100;-80
2022/07/23 08:50:27;;;;;;;12.95;4.47;;;;;;;29.89;32.12;99119.88;1709189;84;21504;-79
2022/07/23 08:52:56;;;;;;;15.18;4.17;;;;;;;30.01;32.74;99116.41;1709763;82;20992;-81
2022/07/23 08:55:23;;;;;;;7.50;4.37;;;;;;;30.22;32.66;99107.07;1710836;83;21064;-80
2022/07/23 08:57:52;;;;;;;16.37;4.50;;;;;;;30.36;32.04;99115.00;1710238;82;20996;-80
2022/07/23 09:00:21;;;;;;;12.80;4.65;;;;;;;30.47;32.33;99109.33;1679860;84;21133;-80
2022/07/23 09:02:49;;;;;;;9.13;4.12;;;;;;;30.61;32.55;99111.34;1710858;84;21509;-80
2022/07/23 09:05:16;;;;;;;11.08;4.00;;;;;;;30.77;32.42;99109.17;1702287;84;21006;-80
2022/07/23 09:08:08;;;;;;;10.15;4.58;;;;;;;30.89;31.74;99103.83;1711904;83;21532;-79
2022/07/23 09:10:58;;;;;;;8.30;4.08;;;;;;;30.97;31.58;99100.30;1716104;82;20961;-80
2022/07/23 09:13:46;;;;;;;10.25;4.05;;;;;;;31.07;31.61;99095.58;1710469;82;20986;-79
2022/07/23 09:16:18;;;;;;;8.85;3.75;;;;;;;31.28;31.71;99095.56;1710686;84;21039;-79
2022/07/23 09:18:53;;;;;;;13.40;4.45;;;;;;;31.47;31.48;99092.48;1695027;84;21524;-80
2022/07/23 09:21:28;;;;;;;10.93;4.42;;;;;;;31.63;31.54;99092.11;1708850;84;21023;-80
2022/07/23 09:24:04;;;;;;;10.68;4.17;;;;;;;31.79;31.17;99092.03;1710256;84;21034;-79
2022/07/23 09:26:43;;;;;;;10.13;4.08;;;;;;;31.94;31.03;99090.80;1705625;82;21006;-80
2022/07/23 09:29:25;;;;;;;9.10;3.70;;;;;;;32.10;30.24;99088.55;1710117;82;21057;-80
2022/07/23 09:31:57;;;;;;;11.00;3.98;;;;;;;32.25;29.89;99074.67;1708656;82;21591;-80
2022/07/23 09:34:30;;;;;;;;;;;;;;;32.40;29.90;99078.76;1710653;84;21010;-80
2022/07/23 09:37:18;;;;;;;10.30;3.80;;;;;;;32.56;29.73;99067.58;1718399;82;20139;-79
2022/07/23 09:39:51;;;;;;;11.28;4.10;;;;;;;32.71;29.87;99064.43;1710421;84;21017;-79
2022/07/23 09:42:20;;;;;;;9.98;3.92;;;;;;;32.85;28.67;99065.48;1705036;82;21030;-80
2022/07/23 09:44:51;;;;;;;7.42;3.50;;;;;;;32.95;29.37;99074.13;1713869;83;21054;-79
2022/07/23 09:47:19;;;;;;;8.53;3.52;;;;;;;33.07;29.06;99067.78;1701940;83;21062;-81
2022/07/23 09:50:12;;;;;;;14.95;3.65;;;;;;;33.20;28.33;99067.16;1716985;83;21025;-81
2022/07/23 09:52:51;;;;;;;11.83;3.20;;;;;;;33.27;27.97;99066.23;1711434;83;21025;-82
2022/07/23 09:55:17;;;;;;;9.78;3.27;;;;;;;33.39;28.15;99068.48;1686866;83;21037;-80
2022/07/23 09:57:45;;;;;;;12.88;3.72;;;;;;;33.47;27.61;99066.51;1677591;85;21034;-80
2022/07/23 10:00:13;;;;;;;6.12;3.17;;;;;;;33.57;27.06;99070.79;1717074;83;21533;-80
2022/07/23 10:02:40;;;;;;;9.73;3.40;;;;;;;33.71;26.80;99063.73;1710913;82;22122;-80
2022/07/23 10:05:26;;;;;;;9.25;3.00;;;;;;;33.84;24.80;99065.22;1729230;82;21023;-80
2022/07/23 10:08:13;;;;;;;9.55;3.58;;;;;;;33.92;25.01;99054.31;1703069;83;21011;-81
2022/07/23 10:10:42;;;;;;;6.83;3.50;;;;;;;34.02;25.12;99044.58;1663767;83;21009;-81
2022/07/23 10:15:47;;;;;;;14.25;3.55;;;;;;;34.29;22.92;99039.49;1716691;83;21034;-80
2022/07/23 10:18:14;;;;;;;9.20;2.98;;;;;;;34.32;23.88;99032.34;1703245;82;21063;-81
2022/07/23 10:20:41;;;;;;;11.30;3.60;;;;;;;34.46;23.88;99026.03;1716113;83;21066;-82
2022/07/23 10:23:25;;;;;;;14.47;3.60;;;;;;;34.58;23.42;99019.09;1705348;82;21025;-81
2022/07/23 10:26:06;;;;;;;12.95;3.92;;;;;;;34.58;23.25;99020.45;1688135;83;21057;-80
2022/07/23 10:28:52;;;;;;;10.48;4.17;;;;;;;34.62;23.28;99015.47;1704369;83;20994;-80
2022/07/23 10:31:27;;;;;;;13.00;3.60;;;;;;;34.70;23.08;99014.52;1705515;84;21018;-80
2022/07/23 10:34:08;;;;;;;10.00;3.60;;;;;;;34.78;23.14;99016.58;1714086;83;21026;-82
2022/07/23 10:36:56;;;;;;;11.25;3.95;;;;;;;34.85;22.87;99011.21;1715681;82;21506;-81
2022/07/23 10:39:32;;;;;;;10.68;3.80;;;;;;;34.98;22.70;99008.61;1711332;83;21018;-81
2022/07/23 10:42:13;;;;;;;7.62;3.37;;;;;;;35.02;22.39;99000.42;1716312;82;21030;-79
2022/07/23 10:44:44;;;;;;;10.23;3.50;;;;;;;35.14;22.13;99004.75;1709864;82;21010;-81
2022/07/23 10:50:20;;;;;;;9.80;3.52;;;;;;;35.36;22.31;98992.52;1686812;83;21046;-81
2022/07/23 10:53:15;;;;;;;11.50;3.33;;;;;;;35.49;22.00;98989.02;1686286;85;21078;-81
2022/07/23 10:55:44;;;;;;;15.65;3.60;;;;;;;35.65;22.12;98984.59;1672760;85;21053;-82
2022/07/23 10:58:15;;;;;;;10.68;3.10;;;;;;;35.87;21.59;98983.12;1642878;85;21506;-81
2022/07/23 11:00:41;;;;;;;8.90;3.40;;;;;;;36.00;21.15;98982.63;1676315;85;21121;-81
2022/07/23 11:03:33;;;;;;;8.63;3.65;;;;;;;36.13;20.55;98980.48;1684706;85;21046;-81
2022/07/23 11:06:00;;;;;;;8.60;3.60;;;;;;;36.26;20.61;98976.97;1685989;83;21078;-82
2022/07/23 11:08:26;;;;;;;9.90;3.50;;;;;;;36.48;20.17;98969.45;1689273;85;21537;-81
2022/07/23 11:11:08;;;;;;;13.60;3.60;;;;;;;36.48;20.17;98969.45;1724990;82;20987;-80
2022/07/23 11:13:45;;;;;;;9.28;3.10;;;;;;;36.67;19.20;98973.23;1699969;83;21018;-80
2022/07/23 11:16:21;;;;;;;8.70;3.60;;;;;;;36.67;18.23;98969.17;1686911;83;20989;-81
2022/07/23 11:18:55;;;;;;;11.55;4.17;;;;;;;36.63;18.73;98964.69;1689233;83;21065;-81
2022/07/23 11:21:28;;;;;;;7.55;3.30;;;;;;;36.72;18.84;98964.47;1672045;83;21107;-80
2022/07/23 11:24:08;;;;;;;11.85;3.47;;;;;;;36.80;18.48;98958.81;1672869;83;21010;-80
2022/07/23 11:26:49;;;;;;;12.82;3.42;;;;;;;36.86;18.01;98957.14;1676602;83;21090;-81
2022/07/23 11:29:35;;;;;;;7.95;3.00;;;;;;;36.89;17.87;98949.43;1650371;85;21065;-81
2022/07/23 11:32:05;;;;;;;12.40;3.05;;;;;;;36.99;18.73;98941.69;1676117;83;21038;-82
2022/07/23 11:34:39;;;;;;;11.63;3.65;;;;;;;36.99;18.73;98941.69;1689691;83;21550;-80
2022/07/23 11:37:09;;;;;;;11.90;3.12;;;;;;;37.12;18.04;98933.22;1679063;84;21085;-80
2022/07/23 11:39:36;;;;;;;9.10;3.17;;;;;;;37.22;18.45;98929.52;1689118;85;21101;-81
2022/07/23 11:42:06;;;;;;;8.08;3.33;;;;;;;37.39;18.75;98932.05;1681456;85;21042;-81